sensor_id;sensor_type;location;lat;lon;timestamp;P1;durP1;ratioP1;P2;durP2;ratioP2
16099;SDS011;8154;50.830;12.082;2022-12-29T00:36:37;0.77;;;0.77;;
16099;SDS011;8154;50.830;12.082;2022-12-29T00:39:07;0.70;;;0.70;;
16099;SDS011;8154;50.830;12.082;2022-12-29T00:41:55;0.70;;;0.70;;
16099;SDS011;8154;50.830;12.082;2022-12-29T00:44:39;0.70;;;0.70;;
16099;SDS011;8154;50.830;12.082;2022-12-29T00:47:06;0.70;;;0.70;;
16099;SDS011;8154;50.830;12.082;2022-12-29T00:49:32;0.70;;;0.70;;
16099;SDS011;8154;50.830;12.082;2022-12-29T00:54:36;0.70;;;0.70;;
16099;SDS011;8154;50.830;12.082;2022-12-29T00:57:04;0.65;;;0.65;;
16099;SDS011;8154;50.830;12.082;2022-12-29T00:59:31;0.70;;;0.70;;
16099;SDS011;8154;50.830;12.082;2022-12-29T01:01:59;0.70;;;0.70;;
16099;SDS011;8154;50.830;12.082;2022-12-29T01:04:26;0.70;;;0.70;;
16099;SDS011;8154;50.830;12.082;2022-12-29T01:06:52;0.70;;;0.70;;
16099;SDS011;8154;50.830;12.082;2022-12-29T01:09:19;0.70;;;0.70;;
16099;SDS011;8154;50.830;12.082;2022-12-29T01:12:10;0.65;;;0.65;;
16099;SDS011;8154;50.830;12.082;2022-12-29T01:14:41;0.70;;;0.70;;
16099;SDS011;8154;50.830;12.082;2022-12-29T01:17:11;0.70;;;0.70;;
16099;SDS011;8154;50.830;12.082;2022-12-29T01:19:37;0.70;;;0.70;;
16099;SDS011;8154;50.830;12.082;2022-12-29T01:22:06;0.70;;;0.70;;
16099;SDS011;8154;50.830;12.082;2022-12-29T01:24:36;0.60;;;0.60;;
16099;SDS011;8154;50.830;12.082;2022-12-29T01:27:02;0.60;;;0.60;;
16099;SDS011;8154;50.830;12.082;2022-12-29T01:29:33;0.70;;;0.70;;
16099;SDS011;8154;50.830;12.082;2022-12-29T01:32:03;0.70;;;0.70;;
16099;SDS011;8154;50.830;12.082;2022-12-29T01:34:31;0.70;;;0.70;;
16099;SDS011;8154;50.830;12.082;2022-12-29T01:37:02;0.70;;;0.70;;
16099;SDS011;8154;50.830;12.082;2022-12-29T01:39:29;0.60;;;0.60;;
16099;SDS011;8154;50.830;12.082;2022-12-29T01:41:55;0.65;;;0.65;;
16099;SDS011;8154;50.830;12.082;2022-12-29T01:47:29;0.73;;;0.73;;
16099;SDS011;8154;50.830;12.082;2022-12-29T01:49:57;0.65;;;0.65;;
16099;SDS011;8154;50.830;12.082;2022-12-29T01:52:28;0.80;;;0.80;;
16099;SDS011;8154;50.830;12.082;2022-12-29T01:54:59;0.70;;;0.70;;
16099;SDS011;8154;50.830;12.082;2022-12-29T01:57:29;0.60;;;0.60;;
16099;SDS011;8154;50.830;12.082;2022-12-29T02:00:10;0.70;;;0.70;;
16099;SDS011;8154;50.830;12.082;2022-12-29T02:02:47;0.80;;;0.80;;
16099;SDS011;8154;50.830;12.082;2022-12-29T02:08:10;0.70;;;0.70;;
16099;SDS011;8154;50.830;12.082;2022-12-29T02:10:48;0.52;;;0.52;;
16099;SDS011;8154;50.830;12.082;2022-12-29T02:13:23;0.70;;;0.70;;
16099;SDS011;8154;50.830;12.082;2022-12-29T02:16:14;0.80;;;0.80;;
16099;SDS011;8154;50.830;12.082;2022-12-29T02:27:55;0.70;;;0.70;;
16099;SDS011;8154;50.830;12.082;2022-12-29T02:33:06;0.77;;;0.77;;
16099;SDS011;8154;50.830;12.082;2022-12-29T02:35:48;0.60;;;0.60;;
16099;SDS011;8154;50.830;12.082;2022-12-29T02:38:46;0.70;;;0.70;;
16099;SDS011;8154;50.830;12.082;2022-12-29T02:41:33;0.75;;;0.75;;
16099;SDS011;8154;50.830;12.082;2022-12-29T02:44:51;0.70;;;0.70;;
16099;SDS011;8154;50.830;12.082;2022-12-29T02:51:02;0.70;;;0.70;;
16099;SDS011;8154;50.830;12.082;2022-12-29T02:53:53;0.60;;;0.60;;
16099;SDS011;8154;50.830;12.082;2022-12-29T02:56:51;0.70;;;0.70;;
16099;SDS011;8154;50.830;12.082;2022-12-29T02:59:17;0.70;;;0.70;;
16099;SDS011;8154;50.830;12.082;2022-12-29T03:07:26;0.70;;;0.70;;
16099;SDS011;8154;50.830;12.082;2022-12-29T03:10:14;0.70;;;0.70;;
16099;SDS011;8154;50.830;12.082;2022-12-29T03:12:52;0.70;;;0.70;;
16099;SDS011;8154;50.830;12.082;2022-12-29T03:15:45;0.70;;;0.70;;
16099;SDS011;8154;50.830;12.082;2022-12-29T03:18:36;0.80;;;0.80;;
16099;SDS011;8154;50.830;12.082;2022-12-29T03:21:08;0.68;;;0.68;;
16099;SDS011;8154;50.830;12.082;2022-12-29T03:23:40;0.70;;;0.70;;
16099;SDS011;8154;50.830;12.082;2022-12-29T03:26:10;0.70;;;0.70;;
16099;SDS011;8154;50.830;12.082;2022-12-29T03:28:39;0.60;;;0.60;;
16099;SDS011;8154;50.830;12.082;2022-12-29T03:31:18;0.70;;;0.70;;
16099;SDS011;8154;50.830;12.082;2022-12-29T03:33:48;0.63;;;0.63;;
16099;SDS011;8154;50.830;12.082;2022-12-29T05:35:41;0.70;;;0.70;;
16099;SDS011;8154;50.830;12.082;2022-12-29T05:38:07;0.98;;;0.60;;
16099;SDS011;8154;50.830;12.082;2022-12-29T05:40:33;0.60;;;0.60;;
16099;SDS011;8154;50.830;12.082;2022-12-29T05:42:59;0.70;;;0.70;;
16099;SDS011;8154;50.830;12.082;2022-12-29T05:45:25;0.60;;;0.60;;
16099;SDS011;8154;50.830;12.082;2022-12-29T05:47:51;0.70;;;0.70;;
16099;SDS011;8154;50.830;12.082;2022-12-29T05:50:17;0.60;;;0.60;;
16099;SDS011;8154;50.830;12.082;2022-12-29T05:52:43;0.60;;;0.60;;
16099;SDS011;8154;50.830;12.082;2022-12-29T05:55:10;0.70;;;0.70;;
16099;SDS011;8154;50.830;12.082;2022-12-29T05:57:36;0.68;;;0.68;;
16099;SDS011;8154;50.830;12.082;2022-12-29T06:00:03;0.85;;;0.75;;
16099;SDS011;8154;50.830;12.082;2022-12-29T06:02:30;0.80;;;0.80;;
16099;SDS011;8154;50.830;12.082;2022-12-29T06:04:56;0.70;;;0.70;;
16099;SDS011;8154;50.830;12.082;2022-12-29T06:07:23;0.73;;;0.70;;
16099;SDS011;8154;50.830;12.082;2022-12-29T06:09:49;0.50;;;0.50;;
16099;SDS011;8154;50.830;12.082;2022-12-29T06:12:15;0.57;;;0.57;;
16099;SDS011;8154;50.830;12.082;2022-12-29T06:14:42;0.63;;;0.63;;
16099;SDS011;8154;50.830;12.082;2022-12-29T06:17:08;0.65;;;0.65;;
16099;SDS011;8154;50.830;12.082;2022-12-29T06:19:35;0.60;;;0.60;;
16099;SDS011;8154;50.830;12.082;2022-12-29T06:22:01;0.70;;;0.70;;
16099;SDS011;8154;50.830;12.082;2022-12-29T06:24:27;0.70;;;0.70;;
16099;SDS011;8154;50.830;12.082;2022-12-29T06:26:53;0.75;;;0.68;;
16099;SDS011;8154;50.830;12.082;2022-12-29T06:29:19;0.60;;;0.60;;
16099;SDS011;8154;50.830;12.082;2022-12-29T06:31:46;0.60;;;0.60;;
16099;SDS011;8154;50.830;12.082;2022-12-29T06:34:12;0.70;;;0.70;;
16099;SDS011;8154;50.830;12.082;2022-12-29T11:38:02;0.63;;;0.63;;
16099;SDS011;8154;50.830;12.082;2022-12-29T11:40:31;0.57;;;0.55;;
16099;SDS011;8154;50.830;12.082;2022-12-29T11:43:03;0.60;;;0.60;;
16099;SDS011;8154;50.830;12.082;2022-12-29T11:45:31;0.50;;;0.50;;
16099;SDS011;8154;50.830;12.082;2022-12-29T11:48:08;0.50;;;0.50;;
16099;SDS011;8154;50.830;12.082;2022-12-29T11:50:50;0.60;;;0.60;;
16099;SDS011;8154;50.830;12.082;2022-12-29T11:53:23;0.50;;;0.50;;
16099;SDS011;8154;50.830;12.082;2022-12-29T11:55:53;0.57;;;0.50;;
16099;SDS011;8154;50.830;12.082;2022-12-29T11:58:30;0.60;;;0.60;;
16099;SDS011;8154;50.830;12.082;2022-12-29T12:01:00;0.52;;;0.52;;
16099;SDS011;8154;50.830;12.082;2022-12-29T12:03:41;0.60;;;0.60;;
16099;SDS011;8154;50.830;12.082;2022-12-29T12:06:14;0.60;;;0.60;;
16099;SDS011;8154;50.830;12.082;2022-12-29T12:16:48;0.60;;;0.60;;
16099;SDS011;8154;50.830;12.082;2022-12-29T12:22:11;0.47;;;0.47;;
16099;SDS011;8154;50.830;12.082;2022-12-29T13:18:02;0.50;;;0.50;;
16099;SDS011;8154;50.830;12.082;2022-12-29T13:23:50;0.60;;;0.60;;
16099;SDS011;8154;50.830;12.082;2022-12-29T13:26:22;0.52;;;0.52;;
16099;SDS011;8154;50.830;12.082;2022-12-29T13:31:41;0.50;;;0.50;;
16099;SDS011;8154;50.830;12.082;2022-12-29T13:37:20;0.60;;;0.60;;
16099;SDS011;8154;50.830;12.082;2022-12-29T13:39:52;0.60;;;0.60;;
16099;SDS011;8154;50.830;12.082;2022-12-29T13:42:23;0.57;;;0.57;;
16099;SDS011;8154;50.830;12.082;2022-12-29T13:45:02;0.70;;;0.70;;
16099;SDS011;8154;50.830;12.082;2022-12-29T13:48:35;0.60;;;0.60;;
16099;SDS011;8154;50.830;12.082;2022-12-29T13:50:35;0.75;;;0.75;;
16099;SDS011;8154;50.830;12.082;2022-12-29T13:53:11;0.60;;;0.60;;
16099;SDS011;8154;50.830;12.082;2022-12-29T13:58:48;0.60;;;0.60;;
16099;SDS011;8154;50.830;12.082;2022-12-29T14:04:00;0.55;;;0.55;;
16099;SDS011;8154;50.830;12.082;2022-12-29T14:06:31;0.60;;;0.60;;
16099;SDS011;8154;50.830;12.082;2022-12-29T14:12:47;0.60;;;0.60;;
16099;SDS011;8154;50.830;12.082;2022-12-29T14:15:16;0.60;;;0.60;;
16099;SDS011;8154;50.830;12.082;2022-12-29T15:19:21;0.60;;;0.60;;
16099;SDS011;8154;50.830;12.082;2022-12-29T15:21:52;0.60;;;0.60;;
16099;SDS011;8154;50.830;12.082;2022-12-29T15:24:19;0.50;;;0.50;;
16099;SDS011;8154;50.830;12.082;2022-12-29T15:26:46;0.50;;;0.50;;
16099;SDS011;8154;50.830;12.082;2022-12-29T15:29:30;0.60;;;0.60;;
16099;SDS011;8154;50.830;12.082;2022-12-29T15:31:58;0.70;;;0.60;;
16099;SDS011;8154;50.830;12.082;2022-12-29T15:34:29;0.60;;;0.60;;
16099;SDS011;8154;50.830;12.082;2022-12-29T15:36:56;0.65;;;0.65;;
16099;SDS011;8154;50.830;12.082;2022-12-29T15:39:29;0.60;;;0.60;;
16099;SDS011;8154;50.830;12.082;2022-12-29T15:45:15;1.25;;;0.57;;
16099;SDS011;8154;50.830;12.082;2022-12-29T15:47:43;1.23;;;0.60;;
16099;SDS011;8154;50.830;12.082;2022-12-29T15:50:22;0.68;;;0.60;;
16099;SDS011;8154;50.830;12.082;2022-12-29T15:52:53;0.55;;;0.50;;
16099;SDS011;8154;50.830;12.082;2022-12-29T15:55:43;0.40;;;0.40;;
16099;SDS011;8154;50.830;12.082;2022-12-29T15:58:22;0.65;;;0.65;;
16099;SDS011;8154;50.830;12.082;2022-12-29T16:00:56;0.85;;;0.52;;
16099;SDS011;8154;50.830;12.082;2022-12-29T16:03:32;0.60;;;0.60;;
16099;SDS011;8154;50.830;12.082;2022-12-29T16:06:09;0.52;;;0.50;;
16099;SDS011;8154;50.830;12.082;2022-12-29T16:08:58;0.70;;;0.60;;
16099;SDS011;8154;50.830;12.082;2022-12-29T16:11:37;0.60;;;0.55;;
16099;SDS011;8154;50.830;12.082;2022-12-29T16:14:13;0.65;;;0.63;;
16099;SDS011;8154;50.830;12.082;2022-12-29T16:16:44;1.00;;;0.60;;
16099;SDS011;8154;50.830;12.082;2022-12-29T16:19:31;0.63;;;0.63;;
16099;SDS011;8154;50.830;12.082;2022-12-29T16:22:11;1.02;;;0.60;;
16099;SDS011;8154;50.830;12.082;2022-12-29T16:24:43;0.93;;;0.60;;
16099;SDS011;8154;50.830;12.082;2022-12-29T16:27:22;1.02;;;0.70;;
16099;SDS011;8154;50.830;12.082;2022-12-29T16:30:04;1.27;;;0.70;;
16099;SDS011;8154;50.830;12.082;2022-12-29T16:32:33;0.98;;;0.60;;
16099;SDS011;8154;50.830;12.082;2022-12-29T16:37:43;1.83;;;0.68;;
16099;SDS011;8154;50.830;12.082;2022-12-29T16:40:27;5.68;;;0.90;;
16099;SDS011;8154;50.830;12.082;2022-12-29T16:42:57;3.72;;;0.80;;
16099;SDS011;8154;50.830;12.082;2022-12-29T16:48:25;1.38;;;0.75;;
16099;SDS011;8154;50.830;12.082;2022-12-29T16:53:48;2.58;;;0.80;;
16099;SDS011;8154;50.830;12.082;2022-12-29T16:56:23;2.20;;;0.80;;
16099;SDS011;8154;50.830;12.082;2022-12-29T16:59:35;2.67;;;0.80;;
16099;SDS011;8154;50.830;12.082;2022-12-29T17:02:23;1.70;;;0.70;;
16099;SDS011;8154;50.830;12.082;2022-12-29T17:04:52;1.38;;;0.90;;
16099;SDS011;8154;50.830;12.082;2022-12-29T17:07:26;2.22;;;0.77;;
16099;SDS011;8154;50.830;12.082;2022-12-29T17:09:54;1.33;;;0.73;;
16099;SDS011;8154;50.830;12.082;2022-12-29T17:12:25;1.90;;;0.70;;
16099;SDS011;8154;50.830;12.082;2022-12-29T17:17:59;1.80;;;0.75;;
16099;SDS011;8154;50.830;12.082;2022-12-29T18:09:33;1.70;;;0.70;;
16099;SDS011;8154;50.830;12.082;2022-12-29T18:11:59;1.23;;;0.65;;
16099;SDS011;8154;50.830;12.082;2022-12-29T18:14:26;1.05;;;0.60;;
16099;SDS011;8154;50.830;12.082;2022-12-29T18:16:53;0.73;;;0.73;;
16099;SDS011;8154;50.830;12.082;2022-12-29T18:19:20;0.73;;;0.60;;
16099;SDS011;8154;50.830;12.082;2022-12-29T18:21:47;0.80;;;0.70;;
16099;SDS011;8154;50.830;12.082;2022-12-29T18:24:13;0.50;;;0.50;;
16099;SDS011;8154;50.830;12.082;2022-12-29T18:26:42;0.93;;;0.70;;
16099;SDS011;8154;50.830;12.082;2022-12-29T18:29:09;0.95;;;0.73;;
16099;SDS011;8154;50.830;12.082;2022-12-29T18:31:45;1.13;;;0.60;;
16099;SDS011;8154;50.830;12.082;2022-12-29T18:34:50;0.77;;;0.77;;
16099;SDS011;8154;50.830;12.082;2022-12-29T18:37:17;0.80;;;0.80;;
16099;SDS011;8154;50.830;12.082;2022-12-29T18:39:43;0.93;;;0.70;;
16099;SDS011;8154;50.830;12.082;2022-12-29T18:42:10;1.23;;;0.80;;
16099;SDS011;8154;50.830;12.082;2022-12-29T18:44:43;0.60;;;0.60;;
16099;SDS011;8154;50.830;12.082;2022-12-29T18:47:09;0.60;;;0.60;;
16099;SDS011;8154;50.830;12.082;2022-12-29T18:49:36;1.52;;;0.60;;
16099;SDS011;8154;50.830;12.082;2022-12-29T18:52:04;1.17;;;0.70;;
16099;SDS011;8154;50.830;12.082;2022-12-29T18:54:31;1.00;;;0.60;;
16099;SDS011;8154;50.830;12.082;2022-12-29T18:56:58;0.80;;;0.60;;
16099;SDS011;8154;50.830;12.082;2022-12-29T18:59:25;0.98;;;0.70;;
16099;SDS011;8154;50.830;12.082;2022-12-29T19:01:53;0.70;;;0.60;;
16099;SDS011;8154;50.830;12.082;2022-12-29T19:04:21;1.02;;;0.70;;
16099;SDS011;8154;50.830;12.082;2022-12-29T19:06:48;0.60;;;0.60;;
16099;SDS011;8154;50.830;12.082;2022-12-29T20:10:31;0.70;;;0.70;;
16099;SDS011;8154;50.830;12.082;2022-12-29T20:12:58;0.60;;;0.60;;
16099;SDS011;8154;50.830;12.082;2022-12-29T20:15:26;0.60;;;0.60;;
16099;SDS011;8154;50.830;12.082;2022-12-29T20:17:53;0.73;;;0.60;;
16099;SDS011;8154;50.830;12.082;2022-12-29T20:20:20;0.50;;;0.50;;
16099;SDS011;8154;50.830;12.082;2022-12-29T20:22:59;0.80;;;0.60;;
16099;SDS011;8154;50.830;12.082;2022-12-29T20:25:27;1.30;;;0.77;;
16099;SDS011;8154;50.830;12.082;2022-12-29T20:27:54;0.70;;;0.70;;
16099;SDS011;8154;50.830;12.082;2022-12-29T20:30:21;0.75;;;0.63;;
16099;SDS011;8154;50.830;12.082;2022-12-29T20:32:49;0.60;;;0.60;;
16099;SDS011;8154;50.830;12.082;2022-12-29T20:35:16;0.60;;;0.60;;
16099;SDS011;8154;50.830;12.082;2022-12-29T20:37:45;0.60;;;0.60;;
16099;SDS011;8154;50.830;12.082;2022-12-29T20:40:12;0.60;;;0.60;;
16099;SDS011;8154;50.830;12.082;2022-12-29T20:42:40;0.73;;;0.60;;
16099;SDS011;8154;50.830;12.082;2022-12-29T20:45:06;0.70;;;0.70;;
16099;SDS011;8154;50.830;12.082;2022-12-29T20:47:34;0.60;;;0.60;;
16099;SDS011;8154;50.830;12.082;2022-12-29T20:50:02;0.60;;;0.60;;
16099;SDS011;8154;50.830;12.082;2022-12-29T20:52:29;0.65;;;0.60;;
16099;SDS011;8154;50.830;12.082;2022-12-29T20:54:55;0.85;;;0.70;;
16099;SDS011;8154;50.830;12.082;2022-12-29T20:57:22;0.60;;;0.60;;
16099;SDS011;8154;50.830;12.082;2022-12-29T20:59:49;0.65;;;0.65;;
16099;SDS011;8154;50.830;12.082;2022-12-29T21:02:17;0.70;;;0.70;;
16099;SDS011;8154;50.830;12.082;2022-12-29T21:04:47;0.60;;;0.60;;
16099;SDS011;8154;50.830;12.082;2022-12-29T21:07:15;1.48;;;0.68;;
16099;SDS011;8154;50.830;12.082;2022-12-29T22:10:43;1.15;;;0.75;;
16099;SDS011;8154;50.830;12.082;2022-12-29T22:13:30;0.60;;;0.60;;
16099;SDS011;8154;50.830;12.082;2022-12-29T22:16:04;0.60;;;0.60;;
16099;SDS011;8154;50.830;12.082;2022-12-29T22:18:32;0.60;;;0.60;;
16099;SDS011;8154;50.830;12.082;2022-12-29T22:21:08;0.63;;;0.63;;
16099;SDS011;8154;50.830;12.082;2022-12-29T22:23:36;0.60;;;0.60;;
16099;SDS011;8154;50.830;12.082;2022-12-29T22:26:04;0.60;;;0.60;;
16099;SDS011;8154;50.830;12.082;2022-12-29T22:28:34;0.60;;;0.60;;
16099;SDS011;8154;50.830;12.082;2022-12-29T22:31:03;0.70;;;0.70;;
16099;SDS011;8154;50.830;12.082;2022-12-29T22:33:31;0.50;;;0.50;;
16099;SDS011;8154;50.830;12.082;2022-12-29T22:35:57;1.10;;;0.60;;
16099;SDS011;8154;50.830;12.082;2022-12-29T22:38:24;0.65;;;0.65;;
16099;SDS011;8154;50.830;12.082;2022-12-29T22:40:50;0.60;;;0.60;;
16099;SDS011;8154;50.830;12.082;2022-12-29T22:43:17;0.60;;;0.60;;
16099;SDS011;8154;50.830;12.082;2022-12-29T22:45:44;0.60;;;0.60;;
16099;SDS011;8154;50.830;12.082;2022-12-29T22:48:11;0.70;;;0.70;;
16099;SDS011;8154;50.830;12.082;2022-12-29T22:50:38;0.60;;;0.60;;
16099;SDS011;8154;50.830;12.082;2022-12-29T22:53:04;0.60;;;0.60;;
16099;SDS011;8154;50.830;12.082;2022-12-29T22:55:31;0.60;;;0.60;;
16099;SDS011;8154;50.830;12.082;2022-12-29T22:57:58;0.60;;;0.60;;
16099;SDS011;8154;50.830;12.082;2022-12-29T23:00:27;0.70;;;0.70;;
16099;SDS011;8154;50.830;12.082;2022-12-29T23:02:53;0.60;;;0.60;;
16099;SDS011;8154;50.830;12.082;2022-12-29T23:05:20;0.50;;;0.50;;
16099;SDS011;8154;50.830;12.082;2022-12-29T23:07:46;0.50;;;0.50;;
16099;SDS011;8154;50.830;12.082;2022-12-29T23:10:13;0.52;;;0.52;;
16099;SDS011;8154;50.830;12.082;2022-12-29T23:12:39;0.55;;;0.55;;
16099;SDS011;8154;50.830;12.082;2022-12-29T23:15:05;0.50;;;0.50;;
16099;SDS011;8154;50.830;12.082;2022-12-29T23:17:32;0.57;;;0.57;;
16099;SDS011;8154;50.830;12.082;2022-12-29T23:19:58;0.65;;;0.65;;
16099;SDS011;8154;50.830;12.082;2022-12-29T23:22:24;0.65;;;0.65;;
16099;SDS011;8154;50.830;12.082;2022-12-29T23:24:51;0.50;;;0.50;;
16099;SDS011;8154;50.830;12.082;2022-12-29T23:27:17;0.60;;;0.60;;
16099;SDS011;8154;50.830;12.082;2022-12-29T23:29:44;0.60;;;0.60;;
16099;SDS011;8154;50.830;12.082;2022-12-29T23:32:10;0.60;;;0.60;;
16099;SDS011;8154;50.830;12.082;2022-12-29T23:34:36;0.57;;;0.57;;
16099;SDS011;8154;50.830;12.082;2022-12-29T23:37:03;0.47;;;0.47;;
16099;SDS011;8154;50.830;12.082;2022-12-29T23:39:29;0.55;;;0.55;;
16099;SDS011;8154;50.830;12.082;2022-12-29T23:41:56;0.60;;;0.60;;
16099;SDS011;8154;50.830;12.082;2022-12-29T23:44:22;0.50;;;0.50;;
16099;SDS011;8154;50.830;12.082;2022-12-29T23:46:49;0.60;;;0.60;;
16099;SDS011;8154;50.830;12.082;2022-12-29T23:49:15;0.50;;;0.50;;
16099;SDS011;8154;50.830;12.082;2022-12-29T23:51:41;0.57;;;0.57;;
16099;SDS011;8154;50.830;12.082;2022-12-29T23:54:08;0.50;;;0.50;;
16099;SDS011;8154;50.830;12.082;2022-12-29T23:56:34;0.60;;;0.60;;
16099;SDS011;8154;50.830;12.082;2022-12-29T23:59:04;0.65;;;0.65;;
